WEATHER DATA

TODAY
Time Temp. Dewp. Hum. Wind dir Wind speed Wind gust Bar. 1h Prec. 24h Prec.
00:09 5.8 5.5 98 250 6.4 11.7 1006.4 0.0000 0.0000
00:20 5.8 5.5 98 244 6.1 10.3 1006.3 0.0000 0.0000
00:29 5.8 5.5 98 239 5.8 9.2 1006.1 0.0000 0.0000
00:39 5.8 5.5 98 239 5.8 10 1005.9 0.0000 0.0000
00:49 5.8 5.5 98 240 5.8 9.2 1005.9 0.0000 0.0000
01:00 5.8 5.5 98 239 5.8 10.6 1005.7 0.0000 0.0000
01:10 5.8 5.5 98 243 6.1 10 1005.6 0.0000 0.0000
01:19 5.8 5.5 98 241 4.4 7.5 1005.4 0.0000 0.0000
01:30 5.8 5.5 98 242 5.8 9.2 1005.3 0.0000 0.0000
01:42 5.8 5.5 98 243 5.3 11.1 1005.2 0.0000 0.0000
01:52 5.8 5.5 98 244 5.8 10 1005 0.0000 0.0000
02:01 5.8 5.5 98 239 5.8 9.2 1004.9 0.0000 0.0000
02:12 5.8 5.5 98 242 6.1 10.3 1004.8 0.0000 0.0000
02:22 5.9 5.6 98 241 6.1 11.1 1004.6 0.0000 0.0000
02:32 5.9 5.6 98 242 6.1 10 1004.4 0.0000 0.0000
02:41 5.9 5.6 98 239 6.1 10.3 1004.3 0.0000 0.0000
02:52 6 5.7 98 241 6.1 11.7 1004.1 0.0000 0.0000
03:02 6 5.7 98 239 5.3 9.4 1004.1 0.0000 0.0000
03:12 6 5.7 98 240 5.3 9.2 1004 0.0000 0.0000
03:22 6 5.7 98 244 5.3 9.4 1003.8 0.0000 0.0000
03:32 6.1 5.8 98 243 6.1 9.4 1003.6 0.0000 0.0000
03:42 6.1 5.8 98 239 6.1 9.4 1003.3 0.0000 0.0000
03:52 6.1 5.8 98 235 5.8 10 1003.2 0.0000 0.0000
04:03 6.1 5.8 98 239 6.1 10 1003 0.0000 0.0000
04:12 6.1 5.8 98 239 6.4 10 1002.8 0.1010 0.1000
04:22 6 5.7 98 237 6.1 12.5 1002.6 0.3030 0.3000
04:33 6 5.7 98 247 6.4 9.4 1002.5 0.5050 0.5000
04:43 6 5.7 98 240 5.8 11.1 1002.4 0.5050 0.5000
04:53 6 5.9 99 240 6.1 9.4 1002.3 0.6060 0.6000
05:03 6 5.9 99 242 6.9 10.6 1002.1 0.7070 0.7000
05:13 6 5.9 99 239 5.8 9.2 1001.9 0.7070 0.8000
05:23 6 5.9 99 237 6.1 11.1 1001.8 0.7070 1.0000
05:33 6 5.9 99 244 6.1 9.4 1001.7 0.6060 1.1000
05:43 6 5.9 99 246 6.1 9.4 1001.5 0.7070 1.2000
05:53 6 5.9 99 246 5.8 11.7 1001.3 0.7070 1.3000
06:03 6 5.9 99 239 6.4 10 1001.1 0.7070 1.4000
06:13 6 5.9 99 247 6.1 10.3 1001 0.8080 1.6000
06:24 6 5.9 99 244 5.8 10.6 1000.9 0.8080 1.8000
06:34 6 5.9 99 243 6.1 10.6 1000.7 0.8080 1.9000
06:44 6 5.9 99 249 6.4 11.7 1000.6 0.8080 2.0000
06:54 6 6 100 244 6.9 12.8 1000.5 0.8080 2.1000
07:04 6 6 100 246 6.4 11.4 1000.4 0.7070 2.1000
07:14 6 6 100 248 6.4 11.7 1000.3 0.6060 2.2000
07:24 6 6 100 247 6.9 10.3 1000.2 0.7070 2.5000
07:35 6 6 100 247 5.8 10.3 1000.1 0.6060 2.5000
07:45 6.1 6.1 100 248 6.1 10.3 999.9 0.5050 2.5000
07:54 6.1 6.1 100 246 5.3 11.1 999.9 0.5050 2.6000
08:04 6.1 6.1 100 247 6.1 11.1 999.6 0.5050 2.6000
08:15 6.2 6.2 100 253 5 10 999.6 0.4040 2.6000
08:25 6.2 6.2 100 256 4.4 8.3 999.5 0.1010 2.6000
08:45 6.4 6.4 100 260 5.8 8.6 999.5 0.1010 2.6000
08:51 6.4 6.4 100 261 6.4 14.4 999.6 0.0000 2.6000
09:00 6.5 6.5 100 267 5 10.6 999.6 0.0000 2.6000
09:10 6.5 6.5 100 270 5 9.4 999.5 0.1010 2.7000
09:20 6.6 6.6 100 265 3.9 6.9 999.5 0.1010 2.7000
09:31 6.7 6.7 100 275 3.9 7.2 999.6 0.1010 2.7000
09:40 6.7 6.7 100 291 3.3 6.4 999.7 0.1010 2.7000
09:50 6.8 6.8 100 300 3.3 6.1 999.8 0.1010 2.7000
10:01 6.9 6.9 100 304 5 11.1 999.9 0.1010 2.7000
10:11 7 7 100 308 3.1 6.9 999.9 0.0000 2.7000
10:20 7 7 100 299 3.9 6.1 999.9 0.0000 2.7000
10:31 7.1 7 99 292 3.9 6.4 999.9 0.0000 2.7000
10:41 7.1 7 99 291 3.9 6.9 999.9 0.0000 2.7000
10:51 7.3 7.2 99 297 3.9 8.3 1000.1 0.0000 2.7000
11:01 7.3 7 98 293 3.1 6.9 1000 0.0000 2.7000
11:12 7.4 7.1 98 287 3.1 6.1 1000 0.0000 2.7000
11:22 7.5 7.1 97 287 3.3 6.4 1000.1 0.0000 2.7000
11:32 7.6 7.2 97 299 3.9 8.3 1000.1 0.0000 2.7000
11:42 7.7 7.1 96 295 3.1 6.9 1000.1 0.0000 2.7000
11:52 7.7 7.1 96 283 3.1 5.8 1000 0.0000 2.7000
12:02 7.8 7.2 96 278 3.3 6.4 1000 0.0000 2.7000
12:12 7.9 7.3 96 288 3.1 6.4 999.9 0.0000 2.7000
12:22 7.9 7.3 96 282 3.1 6.4 999.9 0.0000 2.7000
12:33 7.9 7.1 95 282 3.9 6.9 999.8 0.0000 2.7000
12:42 8 7.2 95 289 3.3 6.9 999.8 0.0000 2.7000
12:52 8 7.2 95 270 3.1 5.3 999.7 0.0000 2.7000
13:03 8 7.2 95 267 3.1 5.3 999.5 0.0000 2.7000
13:13 8 7.2 95 270 3.1 5.3 999.5 0.0000 2.7000
13:22 8 7.2 95 270 3.1 5.8 999.4 0.0000 2.7000
13:33 8 7.2 95 274 3.3 6.1 999.2 0.0000 2.7000
13:43 8 7.2 95 266 3.3 5.3 999 0.0000 2.7000
13:46 7.9 7.1 95 270 3.9 8.3 999 0.0000 2.7000
13:56 8 7.2 95 270 3.9 7.2 999 0.0000 2.7000
14:07 8 7.2 95 270 3.9 6.4 998.8 0.0000 2.7000
14:17 8 7.2 95 270 3.3 6.9 998.8 0.0000 2.7000
14:26 8.1 7.3 95 278 4.2 8.6 998.8 0.0000 2.7000
14:37 8 7.2 95 273 4.2 7.2 998.7 0.0000 2.7000
14:47 8 7.2 95 274 4.2 8.6 998.7 0.0000 2.7000
14:57 8 7.2 95 270 3.3 7.5 998.7 0.0000 2.7000
15:07 8 7.1 94 267 3.9 6.9 998.5 0.0000 2.7000
15:17 7.9 7 94 270 3.9 7.5 998.5 0.0000 2.7000
15:28 7.8 6.9 94 270 3.3 5.3 998.5 0.0000 2.7000
15:37 7.7 6.8 94 270 3.9 6.1 998.5 0.0000 2.7000
15:48 7.7 6.8 94 266 3.9 6.9 998.4 0.0000 2.7000
15:58 7.6 6.9 95 267 3.1 5.3 998.4 0.0000 2.7000
16:08 7.4 6.7 95 300 2.8 4.2 998.4 0.4040 3.1000
16:18 7.4 6.8 96 286 3.9 6.4 998.2 0.7070 3.4000

DAY STATISTIC

2020-01-27
TEMPERATURE
AVERAGE
6.7
HIGH
8.1
14:26
LOW
5.8
00:09
PRESSURE
AVERAGE
1001.2
HIGH
1006.4
00:09
LOW
998.2
16:18
DEWPOINT
AVERAGE
6.4
HIGH
7.3
12:12
LOW
5.5
00:09
HUMIDITY
AVERAGE
98
HIGH
100
06:54
LOW
94
15:07
WIND SPEED
AVERAGE
4.9
HIGH
6.9
05:03
WIND GUST
AVERAGE
8.7
HIGH
14.4
08:51
WIND DIRECTION
PREVAILING
SW
45.4%
N
0.0
NE
0.0
E
0.0
SE
0.0
S
0.0
SW
45.4
W
45.4
NW
9.3
PRECIPITATION
RAIN HOUR
0.8
RAIN DAY
3.4
TEMPERATURE (°C)
LOW
5.8
HIGH
8.1
AVERAGE
6.7
PRESSURE (hpa)
LOW
998.2
HIGH
1006.4
AVERAGE
1001.2
DEVICE